sensor_id;sensor_type;location;lat;lon;timestamp;P1;durP1;ratioP1;P2;durP2;ratioP2
27145;SDS011;17980;51.744;7.190;2022-12-10T00:01:44;67.73;;;38.20;;
27145;SDS011;17980;51.744;7.190;2022-12-10T00:04:21;70.77;;;36.40;;
27145;SDS011;17980;51.744;7.190;2022-12-10T00:06:48;70.33;;;38.30;;
27145;SDS011;17980;51.744;7.190;2022-12-10T00:09:16;66.70;;;37.47;;
27145;SDS011;17980;51.744;7.190;2022-12-10T00:11:45;63.40;;;36.23;;
27145;SDS011;17980;51.744;7.190;2022-12-10T00:14:13;65.17;;;37.87;;
27145;SDS011;17980;51.744;7.190;2022-12-10T00:16:50;67.07;;;38.30;;
27145;SDS011;17980;51.744;7.190;2022-12-10T00:19:17;65.23;;;38.00;;
27145;SDS011;17980;51.744;7.190;2022-12-10T00:21:54;73.23;;;39.00;;
27145;SDS011;17980;51.744;7.190;2022-12-10T00:24:21;73.30;;;38.93;;
27145;SDS011;17980;51.744;7.190;2022-12-10T00:26:58;67.53;;;38.23;;
27145;SDS011;17980;51.744;7.190;2022-12-10T00:29:25;67.40;;;38.23;;
27145;SDS011;17980;51.744;7.190;2022-12-10T00:31:52;65.53;;;36.53;;
27145;SDS011;17980;51.744;7.190;2022-12-10T00:34:19;66.03;;;37.97;;
27145;SDS011;17980;51.744;7.190;2022-12-10T00:36:47;67.83;;;35.93;;
27145;SDS011;17980;51.744;7.190;2022-12-10T00:39:24;65.93;;;38.13;;
27145;SDS011;17980;51.744;7.190;2022-12-10T00:41:52;67.13;;;37.57;;
27145;SDS011;17980;51.744;7.190;2022-12-10T00:44:19;62.63;;;38.07;;
27145;SDS011;17980;51.744;7.190;2022-12-10T00:46:47;60.13;;;36.27;;
27145;SDS011;17980;51.744;7.190;2022-12-10T00:49:23;65.30;;;37.80;;
27145;SDS011;17980;51.744;7.190;2022-12-10T00:51:51;65.33;;;37.30;;
27145;SDS011;17980;51.744;7.190;2022-12-10T00:54:27;72.63;;;38.50;;
27145;SDS011;17980;51.744;7.190;2022-12-10T00:56:55;61.47;;;35.37;;
27145;SDS011;17980;51.744;7.190;2022-12-10T00:59:22;62.20;;;35.87;;
27145;SDS011;17980;51.744;7.190;2022-12-10T01:01:49;64.60;;;37.80;;
27145;SDS011;17980;51.744;7.190;2022-12-10T01:04:17;60.80;;;36.60;;
27145;SDS011;17980;51.744;7.190;2022-12-10T01:06:45;57.20;;;35.47;;
27145;SDS011;17980;51.744;7.190;2022-12-10T01:09:15;58.47;;;35.23;;
27145;SDS011;17980;51.744;7.190;2022-12-10T01:11:52;59.33;;;36.67;;
27145;SDS011;17980;51.744;7.190;2022-12-10T01:14:21;59.47;;;35.80;;
27145;SDS011;17980;51.744;7.190;2022-12-10T01:16:52;59.67;;;35.37;;
27145;SDS011;17980;51.744;7.190;2022-12-10T01:19:21;56.07;;;35.30;;
27145;SDS011;17980;51.744;7.190;2022-12-10T01:21:49;59.67;;;35.63;;
27145;SDS011;17980;51.744;7.190;2022-12-10T01:24:27;55.67;;;34.47;;
27145;SDS011;17980;51.744;7.190;2022-12-10T01:26:55;60.07;;;36.03;;
27145;SDS011;17980;51.744;7.190;2022-12-10T01:29:22;62.80;;;35.93;;
27145;SDS011;17980;51.744;7.190;2022-12-10T01:31:50;59.47;;;34.53;;
27145;SDS011;17980;51.744;7.190;2022-12-10T01:34:18;59.20;;;33.90;;
27145;SDS011;17980;51.744;7.190;2022-12-10T01:36:48;55.43;;;33.30;;
27145;SDS011;17980;51.744;7.190;2022-12-10T01:39:24;62.83;;;34.07;;
27145;SDS011;17980;51.744;7.190;2022-12-10T01:41:52;58.43;;;34.33;;
27145;SDS011;17980;51.744;7.190;2022-12-10T01:47:26;55.53;;;32.87;;
27145;SDS011;17980;51.744;7.190;2022-12-10T01:50:04;56.60;;;32.87;;
27145;SDS011;17980;51.744;7.190;2022-12-10T01:52:33;52.60;;;33.03;;
27145;SDS011;17980;51.744;7.190;2022-12-10T01:58:05;56.77;;;33.50;;
27145;SDS011;17980;51.744;7.190;2022-12-10T02:00:32;54.87;;;33.93;;
27145;SDS011;17980;51.744;7.190;2022-12-10T02:03:04;57.03;;;34.77;;
27145;SDS011;17980;51.744;7.190;2022-12-10T02:05:42;55.93;;;33.80;;
27145;SDS011;17980;51.744;7.190;2022-12-10T02:08:16;61.70;;;36.97;;
27145;SDS011;17980;51.744;7.190;2022-12-10T02:10:49;57.87;;;34.80;;
27145;SDS011;17980;51.744;7.190;2022-12-10T02:13:21;57.50;;;34.37;;
27145;SDS011;17980;51.744;7.190;2022-12-10T02:18:27;63.77;;;35.40;;
27145;SDS011;17980;51.744;7.190;2022-12-10T02:20:57;61.20;;;35.43;;
27145;SDS011;17980;51.744;7.190;2022-12-10T02:23:36;54.43;;;31.80;;
27145;SDS011;17980;51.744;7.190;2022-12-10T02:26:15;58.13;;;32.73;;
27145;SDS011;17980;51.744;7.190;2022-12-10T02:28:39;58.00;;;34.47;;
27145;SDS011;17980;51.744;7.190;2022-12-10T02:31:17;58.97;;;32.93;;
27145;SDS011;17980;51.744;7.190;2022-12-10T02:33:48;56.70;;;34.93;;
27145;SDS011;17980;51.744;7.190;2022-12-10T02:36:17;54.30;;;33.57;;
27145;SDS011;17980;51.744;7.190;2022-12-10T02:38:46;57.13;;;32.97;;
27145;SDS011;17980;51.744;7.190;2022-12-10T02:41:16;52.00;;;32.33;;
27145;SDS011;17980;51.744;7.190;2022-12-10T02:43:46;53.40;;;33.77;;
27145;SDS011;17980;51.744;7.190;2022-12-10T02:46:17;58.87;;;34.33;;
27145;SDS011;17980;51.744;7.190;2022-12-10T02:48:54;53.13;;;32.57;;
27145;SDS011;17980;51.744;7.190;2022-12-10T02:51:23;53.47;;;33.27;;
27145;SDS011;17980;51.744;7.190;2022-12-10T02:54:00;55.03;;;33.80;;
27145;SDS011;17980;51.744;7.190;2022-12-10T02:56:29;53.63;;;33.17;;
27145;SDS011;17980;51.744;7.190;2022-12-10T02:59:10;50.33;;;32.40;;
27145;SDS011;17980;51.744;7.190;2022-12-10T03:01:41;53.47;;;33.17;;
27145;SDS011;17980;51.744;7.190;2022-12-10T03:04:11;56.13;;;34.47;;
27145;SDS011;17980;51.744;7.190;2022-12-10T03:06:42;53.40;;;33.50;;
27145;SDS011;17980;51.744;7.190;2022-12-10T03:09:22;48.30;;;31.83;;
27145;SDS011;17980;51.744;7.190;2022-12-10T03:11:53;51.77;;;32.93;;
27145;SDS011;17980;51.744;7.190;2022-12-10T03:14:31;51.77;;;31.17;;
27145;SDS011;17980;51.744;7.190;2022-12-10T03:17:00;48.20;;;31.70;;
27145;SDS011;17980;51.744;7.190;2022-12-10T03:19:39;52.23;;;33.10;;
27145;SDS011;17980;51.744;7.190;2022-12-10T03:22:08;49.73;;;32.03;;
27145;SDS011;17980;51.744;7.190;2022-12-10T03:24:38;51.30;;;32.63;;
27145;SDS011;17980;51.744;7.190;2022-12-10T03:27:16;52.87;;;34.10;;
27145;SDS011;17980;51.744;7.190;2022-12-10T03:29:47;51.43;;;31.53;;
27145;SDS011;17980;51.744;7.190;2022-12-10T03:32:18;50.23;;;32.50;;
27145;SDS011;17980;51.744;7.190;2022-12-10T03:34:59;55.60;;;33.63;;
27145;SDS011;17980;51.744;7.190;2022-12-10T03:37:27;52.57;;;32.83;;
27145;SDS011;17980;51.744;7.190;2022-12-10T03:39:56;52.73;;;34.17;;
27145;SDS011;17980;51.744;7.190;2022-12-10T03:42:24;53.40;;;34.60;;
27145;SDS011;17980;51.744;7.190;2022-12-10T03:44:51;49.20;;;31.03;;
27145;SDS011;17980;51.744;7.190;2022-12-10T03:47:28;56.43;;;33.90;;
27145;SDS011;17980;51.744;7.190;2022-12-10T03:49:55;58.77;;;33.83;;
27145;SDS011;17980;51.744;7.190;2022-12-10T03:52:32;57.57;;;33.57;;
27145;SDS011;17980;51.744;7.190;2022-12-10T03:55:00;54.77;;;32.57;;
27145;SDS011;17980;51.744;7.190;2022-12-10T03:57:29;58.50;;;33.27;;
27145;SDS011;17980;51.744;7.190;2022-12-10T04:00:12;53.47;;;32.07;;
27145;SDS011;17980;51.744;7.190;2022-12-10T04:02:40;55.60;;;32.50;;
27145;SDS011;17980;51.744;7.190;2022-12-10T04:05:07;51.30;;;31.40;;
27145;SDS011;17980;51.744;7.190;2022-12-10T04:07:35;55.50;;;33.20;;
27145;SDS011;17980;51.744;7.190;2022-12-10T04:10:02;54.73;;;33.87;;
27145;SDS011;17980;51.744;7.190;2022-12-10T04:12:30;51.40;;;32.87;;
27145;SDS011;17980;51.744;7.190;2022-12-10T04:14:58;51.37;;;32.50;;
27145;SDS011;17980;51.744;7.190;2022-12-10T04:17:34;52.80;;;33.67;;
27145;SDS011;17980;51.744;7.190;2022-12-10T04:20:02;50.13;;;31.07;;
27145;SDS011;17980;51.744;7.190;2022-12-10T04:22:39;54.87;;;34.13;;
27145;SDS011;17980;51.744;7.190;2022-12-10T04:25:25;49.63;;;32.87;;
27145;SDS011;17980;51.744;7.190;2022-12-10T04:28:10;52.50;;;32.50;;
27145;SDS011;17980;51.744;7.190;2022-12-10T04:30:47;53.87;;;32.37;;
27145;SDS011;17980;51.744;7.190;2022-12-10T04:33:14;51.80;;;33.33;;
27145;SDS011;17980;51.744;7.190;2022-12-10T04:35:42;57.10;;;32.37;;
27145;SDS011;17980;51.744;7.190;2022-12-10T04:38:09;56.53;;;35.13;;
27145;SDS011;17980;51.744;7.190;2022-12-10T04:40:36;55.77;;;32.87;;
27145;SDS011;17980;51.744;7.190;2022-12-10T04:43:03;50.83;;;33.63;;
27145;SDS011;17980;51.744;7.190;2022-12-10T04:45:33;52.20;;;32.57;;
27145;SDS011;17980;51.744;7.190;2022-12-10T04:48:10;54.53;;;33.10;;
27145;SDS011;17980;51.744;7.190;2022-12-10T04:50:37;52.50;;;33.03;;
27145;SDS011;17980;51.744;7.190;2022-12-10T04:53:04;56.50;;;33.00;;
27145;SDS011;17980;51.744;7.190;2022-12-10T04:55:41;55.90;;;34.10;;
27145;SDS011;17980;51.744;7.190;2022-12-10T04:58:08;55.40;;;32.57;;
27145;SDS011;17980;51.744;7.190;2022-12-10T05:00:35;53.63;;;33.53;;
27145;SDS011;17980;51.744;7.190;2022-12-10T05:03:03;53.27;;;32.87;;
27145;SDS011;17980;51.744;7.190;2022-12-10T05:05:30;54.40;;;33.57;;
27145;SDS011;17980;51.744;7.190;2022-12-10T05:07:59;54.30;;;32.60;;
27145;SDS011;17980;51.744;7.190;2022-12-10T05:10:26;52.87;;;33.77;;
27145;SDS011;17980;51.744;7.190;2022-12-10T05:12:53;54.83;;;32.83;;
27145;SDS011;17980;51.744;7.190;2022-12-10T05:15:20;56.70;;;33.37;;
27145;SDS011;17980;51.744;7.190;2022-12-10T05:17:57;52.93;;;33.10;;
27145;SDS011;17980;51.744;7.190;2022-12-10T05:20:24;53.87;;;33.07;;
27145;SDS011;17980;51.744;7.190;2022-12-10T05:23:04;52.77;;;31.73;;
27145;SDS011;17980;51.744;7.190;2022-12-10T05:25:49;54.27;;;33.70;;
27145;SDS011;17980;51.744;7.190;2022-12-10T05:28:34;56.20;;;33.13;;
27145;SDS011;17980;51.744;7.190;2022-12-10T05:31:02;58.20;;;34.43;;
27145;SDS011;17980;51.744;7.190;2022-12-10T05:33:39;58.00;;;35.23;;
27145;SDS011;17980;51.744;7.190;2022-12-10T05:36:08;51.07;;;32.47;;
27145;SDS011;17980;51.744;7.190;2022-12-10T05:38:37;53.93;;;34.00;;
27145;SDS011;17980;51.744;7.190;2022-12-10T05:41:05;54.63;;;33.43;;
27145;SDS011;17980;51.744;7.190;2022-12-10T05:43:43;56.53;;;34.27;;
27145;SDS011;17980;51.744;7.190;2022-12-10T05:46:11;58.47;;;34.00;;
27145;SDS011;17980;51.744;7.190;2022-12-10T05:48:40;60.37;;;34.73;;
27145;SDS011;17980;51.744;7.190;2022-12-10T05:51:18;54.57;;;32.63;;
27145;SDS011;17980;51.744;7.190;2022-12-10T05:53:47;57.47;;;34.83;;
27145;SDS011;17980;51.744;7.190;2022-12-10T05:56:25;56.33;;;34.23;;
27145;SDS011;17980;51.744;7.190;2022-12-10T05:58:53;57.83;;;34.53;;
27145;SDS011;17980;51.744;7.190;2022-12-10T06:01:23;56.50;;;32.53;;
27145;SDS011;17980;51.744;7.190;2022-12-10T06:04:02;52.37;;;31.53;;
27145;SDS011;17980;51.744;7.190;2022-12-10T06:06:39;53.30;;;33.10;;
27145;SDS011;17980;51.744;7.190;2022-12-10T06:09:09;53.87;;;31.57;;
27145;SDS011;17980;51.744;7.190;2022-12-10T06:11:46;57.00;;;32.40;;
27145;SDS011;17980;51.744;7.190;2022-12-10T06:14:14;51.63;;;31.67;;
27145;SDS011;17980;51.744;7.190;2022-12-10T06:16:41;57.77;;;32.40;;
27145;SDS011;17980;51.744;7.190;2022-12-10T06:19:08;50.80;;;31.37;;
27145;SDS011;17980;51.744;7.190;2022-12-10T06:21:45;52.17;;;30.50;;
27145;SDS011;17980;51.744;7.190;2022-12-10T06:24:12;47.03;;;29.83;;
27145;SDS011;17980;51.744;7.190;2022-12-10T06:26:49;52.77;;;30.93;;
27145;SDS011;17980;51.744;7.190;2022-12-10T06:29:16;49.43;;;30.57;;
27145;SDS011;17980;51.744;7.190;2022-12-10T06:31:44;54.10;;;32.17;;
27145;SDS011;17980;51.744;7.190;2022-12-10T06:34:11;54.43;;;32.57;;
27145;SDS011;17980;51.744;7.190;2022-12-10T06:36:38;56.23;;;33.10;;
27145;SDS011;17980;51.744;7.190;2022-12-10T06:39:05;58.17;;;33.17;;
27145;SDS011;17980;51.744;7.190;2022-12-10T06:41:33;55.90;;;32.70;;
27145;SDS011;17980;51.744;7.190;2022-12-10T06:44:00;59.53;;;33.83;;
27145;SDS011;17980;51.744;7.190;2022-12-10T06:46:38;59.23;;;33.70;;
27145;SDS011;17980;51.744;7.190;2022-12-10T06:49:06;58.13;;;34.30;;
27145;SDS011;17980;51.744;7.190;2022-12-10T06:51:43;53.87;;;33.37;;
27145;SDS011;17980;51.744;7.190;2022-12-10T06:54:11;56.20;;;33.30;;
27145;SDS011;17980;51.744;7.190;2022-12-10T06:56:47;59.00;;;35.87;;
27145;SDS011;17980;51.744;7.190;2022-12-10T06:59:15;58.13;;;33.50;;
27145;SDS011;17980;51.744;7.190;2022-12-10T07:01:42;51.37;;;31.77;;
27145;SDS011;17980;51.744;7.190;2022-12-10T07:04:09;62.10;;;33.90;;
27145;SDS011;17980;51.744;7.190;2022-12-10T07:06:46;60.23;;;34.30;;
27145;SDS011;17980;51.744;7.190;2022-12-10T07:09:13;54.60;;;31.40;;
27145;SDS011;17980;51.744;7.190;2022-12-10T07:11:41;53.70;;;32.93;;
27145;SDS011;17980;51.744;7.190;2022-12-10T07:14:09;54.90;;;32.87;;
27145;SDS011;17980;51.744;7.190;2022-12-10T07:16:39;54.50;;;34.37;;
27145;SDS011;17980;51.744;7.190;2022-12-10T07:19:16;51.93;;;31.60;;
27145;SDS011;17980;51.744;7.190;2022-12-10T07:21:43;56.13;;;30.73;;
27145;SDS011;17980;51.744;7.190;2022-12-10T07:24:12;57.83;;;33.30;;
27145;SDS011;17980;51.744;7.190;2022-12-10T07:26:50;60.57;;;32.83;;
27145;SDS011;17980;51.744;7.190;2022-12-10T07:29:18;50.97;;;31.53;;
27145;SDS011;17980;51.744;7.190;2022-12-10T07:31:46;49.37;;;30.93;;
27145;SDS011;17980;51.744;7.190;2022-12-10T07:34:24;49.97;;;32.00;;
27145;SDS011;17980;51.744;7.190;2022-12-10T07:36:51;53.57;;;32.27;;
27145;SDS011;17980;51.744;7.190;2022-12-10T07:39:18;55.40;;;32.77;;
27145;SDS011;17980;51.744;7.190;2022-12-10T07:41:55;49.43;;;30.87;;
27145;SDS011;17980;51.744;7.190;2022-12-10T07:44:23;49.67;;;30.07;;
27145;SDS011;17980;51.744;7.190;2022-12-10T07:46:52;54.10;;;32.33;;
27145;SDS011;17980;51.744;7.190;2022-12-10T07:49:20;53.77;;;32.53;;
27145;SDS011;17980;51.744;7.190;2022-12-10T07:51:57;54.47;;;33.20;;
27145;SDS011;17980;51.744;7.190;2022-12-10T07:54:24;53.67;;;32.60;;
27145;SDS011;17980;51.744;7.190;2022-12-10T07:56:51;45.03;;;30.97;;
27145;SDS011;17980;51.744;7.190;2022-12-10T07:59:18;53.33;;;31.83;;
27145;SDS011;17980;51.744;7.190;2022-12-10T08:01:55;47.73;;;29.43;;
27145;SDS011;17980;51.744;7.190;2022-12-10T08:04:23;50.37;;;30.77;;
27145;SDS011;17980;51.744;7.190;2022-12-10T08:06:54;49.30;;;30.83;;
27145;SDS011;17980;51.744;7.190;2022-12-10T08:09:22;52.00;;;29.60;;
27145;SDS011;17980;51.744;7.190;2022-12-10T08:14:34;47.07;;;28.67;;
27145;SDS011;17980;51.744;7.190;2022-12-10T08:17:02;45.70;;;28.30;;
27145;SDS011;17980;51.744;7.190;2022-12-10T08:22:05;47.97;;;28.03;;
27145;SDS011;17980;51.744;7.190;2022-12-10T08:24:32;47.73;;;28.73;;
27145;SDS011;17980;51.744;7.190;2022-12-10T08:26:59;51.10;;;29.37;;
27145;SDS011;17980;51.744;7.190;2022-12-10T08:29:27;62.23;;;31.57;;
27145;SDS011;17980;51.744;7.190;2022-12-10T08:32:03;67.07;;;34.43;;
27145;SDS011;17980;51.744;7.190;2022-12-10T08:34:31;68.27;;;33.40;;
27145;SDS011;17980;51.744;7.190;2022-12-10T08:36:58;67.83;;;35.90;;
27145;SDS011;17980;51.744;7.190;2022-12-10T08:39:25;72.10;;;36.57;;
27145;SDS011;17980;51.744;7.190;2022-12-10T08:41:52;75.87;;;36.23;;
27145;SDS011;17980;51.744;7.190;2022-12-10T08:44:20;71.90;;;35.17;;
27145;SDS011;17980;51.744;7.190;2022-12-10T08:46:57;79.27;;;36.13;;
27145;SDS011;17980;51.744;7.190;2022-12-10T08:49:24;73.93;;;37.90;;
27145;SDS011;17980;51.744;7.190;2022-12-10T08:52:01;76.37;;;38.00;;
27145;SDS011;17980;51.744;7.190;2022-12-10T08:54:28;83.30;;;38.30;;
27145;SDS011;17980;51.744;7.190;2022-12-10T08:56:55;81.73;;;38.87;;
27145;SDS011;17980;51.744;7.190;2022-12-10T08:59:22;82.53;;;37.80;;
27145;SDS011;17980;51.744;7.190;2022-12-10T09:01:59;84.50;;;38.97;;
27145;SDS011;17980;51.744;7.190;2022-12-10T09:04:26;87.67;;;39.60;;
27145;SDS011;17980;51.744;7.190;2022-12-10T09:06:54;89.53;;;40.10;;
27145;SDS011;17980;51.744;7.190;2022-12-10T09:09:21;87.07;;;40.83;;
27145;SDS011;17980;51.744;7.190;2022-12-10T09:11:48;92.63;;;42.00;;
27145;SDS011;17980;51.744;7.190;2022-12-10T09:14:15;91.53;;;41.83;;
27145;SDS011;17980;51.744;7.190;2022-12-10T09:16:53;93.43;;;42.23;;
27145;SDS011;17980;51.744;7.190;2022-12-10T09:19:20;103.37;;;43.37;;
27145;SDS011;17980;51.744;7.190;2022-12-10T09:21:57;87.77;;;41.40;;
27145;SDS011;17980;51.744;7.190;2022-12-10T09:24:25;101.77;;;43.93;;
27145;SDS011;17980;51.744;7.190;2022-12-10T09:26:52;98.07;;;41.70;;
27145;SDS011;17980;51.744;7.190;2022-12-10T09:29:19;92.07;;;43.00;;
27145;SDS011;17980;51.744;7.190;2022-12-10T09:31:56;93.03;;;43.07;;
27145;SDS011;17980;51.744;7.190;2022-12-10T09:34:23;99.33;;;44.30;;
27145;SDS011;17980;51.744;7.190;2022-12-10T09:36:50;88.13;;;43.87;;
27145;SDS011;17980;51.744;7.190;2022-12-10T09:39:19;90.53;;;41.70;;
27145;SDS011;17980;51.744;7.190;2022-12-10T09:41:49;87.70;;;41.27;;
27145;SDS011;17980;51.744;7.190;2022-12-10T09:44:34;89.37;;;41.20;;
27145;SDS011;17980;51.744;7.190;2022-12-10T09:47:06;94.60;;;43.67;;
27145;SDS011;17980;51.744;7.190;2022-12-10T09:49:49;97.37;;;45.50;;
27145;SDS011;17980;51.744;7.190;2022-12-10T09:52:20;90.07;;;43.30;;
27145;SDS011;17980;51.744;7.190;2022-12-10T09:54:59;95.20;;;42.93;;
27145;SDS011;17980;51.744;7.190;2022-12-10T09:57:29;94.20;;;45.67;;
27145;SDS011;17980;51.744;7.190;2022-12-10T10:00:15;103.13;;;44.90;;
27145;SDS011;17980;51.744;7.190;2022-12-10T10:02:48;92.37;;;42.77;;
27145;SDS011;17980;51.744;7.190;2022-12-10T10:05:19;88.37;;;44.50;;
27145;SDS011;17980;51.744;7.190;2022-12-10T10:07:49;93.80;;;45.17;;
27145;SDS011;17980;51.744;7.190;2022-12-10T10:10:28;89.67;;;45.07;;
27145;SDS011;17980;51.744;7.190;2022-12-10T10:12:58;91.63;;;43.40;;
27145;SDS011;17980;51.744;7.190;2022-12-10T10:15:30;95.67;;;44.40;;
27145;SDS011;17980;51.744;7.190;2022-12-10T10:17:59;94.80;;;45.03;;
27145;SDS011;17980;51.744;7.190;2022-12-10T10:20:38;91.53;;;44.77;;
27145;SDS011;17980;51.744;7.190;2022-12-10T10:23:05;105.10;;;45.10;;
27145;SDS011;17980;51.744;7.190;2022-12-10T10:25:42;89.00;;;43.93;;
27145;SDS011;17980;51.744;7.190;2022-12-10T10:28:11;87.50;;;42.23;;
27145;SDS011;17980;51.744;7.190;2022-12-10T10:30:42;90.13;;;44.83;;
27145;SDS011;17980;51.744;7.190;2022-12-10T10:33:19;95.67;;;45.97;;
27145;SDS011;17980;51.744;7.190;2022-12-10T10:35:47;95.17;;;45.30;;
27145;SDS011;17980;51.744;7.190;2022-12-10T10:38:18;91.97;;;43.00;;
27145;SDS011;17980;51.744;7.190;2022-12-10T10:40:50;100.50;;;47.27;;
27145;SDS011;17980;51.744;7.190;2022-12-10T10:43:27;97.73;;;46.77;;
27145;SDS011;17980;51.744;7.190;2022-12-10T10:45:58;104.60;;;46.83;;
27145;SDS011;17980;51.744;7.190;2022-12-10T10:48:27;99.97;;;48.67;;
27145;SDS011;17980;51.744;7.190;2022-12-10T10:51:15;100.07;;;47.40;;
27145;SDS011;17980;51.744;7.190;2022-12-10T10:53:46;103.30;;;47.07;;
27145;SDS011;17980;51.744;7.190;2022-12-10T10:56:23;96.03;;;46.07;;
27145;SDS011;17980;51.744;7.190;2022-12-10T10:58:55;103.00;;;48.27;;
27145;SDS011;17980;51.744;7.190;2022-12-10T11:01:43;101.70;;;47.53;;
27145;SDS011;17980;51.744;7.190;2022-12-10T11:04:24;95.60;;;47.20;;
27145;SDS011;17980;51.744;7.190;2022-12-10T11:07:12;95.93;;;45.70;;
27145;SDS011;17980;51.744;7.190;2022-12-10T11:09:46;97.90;;;48.10;;
27145;SDS011;17980;51.744;7.190;2022-12-10T11:12:35;102.50;;;52.23;;
27145;SDS011;17980;51.744;7.190;2022-12-10T11:15:28;114.80;;;53.10;;
27145;SDS011;17980;51.744;7.190;2022-12-10T11:20:41;113.40;;;51.40;;
27145;SDS011;17980;51.744;7.190;2022-12-10T11:23:14;113.50;;;54.20;;
27145;SDS011;17980;51.744;7.190;2022-12-10T11:25:43;122.53;;;55.43;;
27145;SDS011;17980;51.744;7.190;2022-12-10T11:28:27;117.90;;;52.83;;
27145;SDS011;17980;51.744;7.190;2022-12-10T11:33:52;112.27;;;52.13;;
27145;SDS011;17980;51.744;7.190;2022-12-10T11:36:26;105.07;;;52.00;;
27145;SDS011;17980;51.744;7.190;2022-12-10T11:41:52;109.23;;;52.67;;
27145;SDS011;17980;51.744;7.190;2022-12-10T11:44:30;103.50;;;51.87;;
27145;SDS011;17980;51.744;7.190;2022-12-10T11:47:13;104.27;;;52.23;;
27145;SDS011;17980;51.744;7.190;2022-12-10T11:52:40;103.53;;;49.10;;
27145;SDS011;17980;51.744;7.190;2022-12-10T11:55:21;105.50;;;50.90;;
27145;SDS011;17980;51.744;7.190;2022-12-10T11:58:01;98.43;;;50.00;;
27145;SDS011;17980;51.744;7.190;2022-12-10T12:00:37;99.20;;;50.07;;
27145;SDS011;17980;51.744;7.190;2022-12-10T12:06:27;96.50;;;50.90;;
27145;SDS011;17980;51.744;7.190;2022-12-10T12:09:10;96.50;;;48.53;;
27145;SDS011;17980;51.744;7.190;2022-12-10T12:11:47;98.60;;;50.60;;
27145;SDS011;17980;51.744;7.190;2022-12-10T12:14:36;97.97;;;49.97;;
27145;SDS011;17980;51.744;7.190;2022-12-10T12:17:09;99.40;;;52.77;;
27145;SDS011;17980;51.744;7.190;2022-12-10T12:20:03;98.80;;;50.37;;
27145;SDS011;17980;51.744;7.190;2022-12-10T12:22:36;100.33;;;49.43;;
27145;SDS011;17980;51.744;7.190;2022-12-10T12:25:29;110.70;;;55.17;;
27145;SDS011;17980;51.744;7.190;2022-12-10T12:28:10;105.27;;;51.10;;
27145;SDS011;17980;51.744;7.190;2022-12-10T12:33:42;96.87;;;49.40;;
27145;SDS011;17980;51.744;7.190;2022-12-10T12:36:17;100.40;;;49.73;;
27145;SDS011;17980;51.744;7.190;2022-12-10T12:38:58;100.70;;;50.40;;
27145;SDS011;17980;51.744;7.190;2022-12-10T12:41:30;97.63;;;49.20;;
27145;SDS011;17980;51.744;7.190;2022-12-10T12:44:12;99.60;;;51.70;;
27145;SDS011;17980;51.744;7.190;2022-12-10T12:46:43;96.37;;;49.27;;
27145;SDS011;17980;51.744;7.190;2022-12-10T12:49:22;89.47;;;48.23;;
27145;SDS011;17980;51.744;7.190;2022-12-10T12:51:56;101.27;;;49.27;;
27145;SDS011;17980;51.744;7.190;2022-12-10T12:54:37;102.10;;;52.83;;
27145;SDS011;17980;51.744;7.190;2022-12-10T12:57:19;103.67;;;51.30;;
27145;SDS011;17980;51.744;7.190;2022-12-10T12:59:58;99.63;;;48.90;;
27145;SDS011;17980;51.744;7.190;2022-12-10T13:02:51;100.80;;;52.10;;
27145;SDS011;17980;51.744;7.190;2022-12-10T13:05:31;97.40;;;49.23;;
27145;SDS011;17980;51.744;7.190;2022-12-10T13:08:20;100.17;;;48.43;;
27145;SDS011;17980;51.744;7.190;2022-12-10T13:11:14;87.40;;;47.53;;
27145;SDS011;17980;51.744;7.190;2022-12-10T13:14:16;92.47;;;46.27;;
27145;SDS011;17980;51.744;7.190;2022-12-10T13:17:08;78.67;;;43.73;;
27145;SDS011;17980;51.744;7.190;2022-12-10T13:22:42;93.20;;;48.20;;
27145;SDS011;17980;51.744;7.190;2022-12-10T13:25:16;91.47;;;47.13;;
27145;SDS011;17980;51.744;7.190;2022-12-10T13:27:59;85.43;;;45.60;;
27145;SDS011;17980;51.744;7.190;2022-12-10T13:30:33;92.37;;;46.13;;
27145;SDS011;17980;51.744;7.190;2022-12-10T13:33:15;87.83;;;44.60;;
27145;SDS011;17980;51.744;7.190;2022-12-10T13:35:52;85.83;;;44.40;;
27145;SDS011;17980;51.744;7.190;2022-12-10T13:38:39;83.57;;;44.37;;
27145;SDS011;17980;51.744;7.190;2022-12-10T13:43:51;80.97;;;43.83;;
27145;SDS011;17980;51.744;7.190;2022-12-10T13:47:21;79.63;;;43.30;;
27145;SDS011;17980;51.744;7.190;2022-12-10T13:49:53;75.87;;;41.60;;
27145;SDS011;17980;51.744;7.190;2022-12-10T13:52:32;79.43;;;43.73;;
27145;SDS011;17980;51.744;7.190;2022-12-10T13:55:07;84.90;;;45.80;;
27145;SDS011;17980;51.744;7.190;2022-12-10T13:57:55;92.73;;;47.57;;
27145;SDS011;17980;51.744;7.190;2022-12-10T14:00:36;93.13;;;45.87;;
27145;SDS011;17980;51.744;7.190;2022-12-10T14:06:32;84.63;;;44.13;;
27145;SDS011;17980;51.744;7.190;2022-12-10T14:09:03;83.03;;;42.17;;
27145;SDS011;17980;51.744;7.190;2022-12-10T14:11:43;90.50;;;43.40;;
27145;SDS011;17980;51.744;7.190;2022-12-10T14:14:16;89.03;;;43.40;;
27145;SDS011;17980;51.744;7.190;2022-12-10T14:16:51;92.60;;;46.17;;
27145;SDS011;17980;51.744;7.190;2022-12-10T14:22:12;82.43;;;42.37;;
27145;SDS011;17980;51.744;7.190;2022-12-10T14:24:44;77.07;;;43.10;;
27145;SDS011;17980;51.744;7.190;2022-12-10T14:27:41;76.37;;;41.93;;
27145;SDS011;17980;51.744;7.190;2022-12-10T14:30:16;79.37;;;41.93;;
27145;SDS011;17980;51.744;7.190;2022-12-10T14:32:46;76.03;;;39.70;;
27145;SDS011;17980;51.744;7.190;2022-12-10T14:35:19;79.83;;;40.40;;
27145;SDS011;17980;51.744;7.190;2022-12-10T14:38:01;78.77;;;40.07;;
27145;SDS011;17980;51.744;7.190;2022-12-10T14:40:29;77.67;;;40.20;;
27145;SDS011;17980;51.744;7.190;2022-12-10T14:43:02;77.13;;;40.67;;
27145;SDS011;17980;51.744;7.190;2022-12-10T14:45:47;72.93;;;39.23;;
27145;SDS011;17980;51.744;7.190;2022-12-10T14:48:19;72.93;;;37.93;;
27145;SDS011;17980;51.744;7.190;2022-12-10T14:50:47;78.03;;;39.03;;
27145;SDS011;17980;51.744;7.190;2022-12-10T14:53:27;72.07;;;36.07;;
27145;SDS011;17980;51.744;7.190;2022-12-10T14:55:58;79.40;;;40.63;;
27145;SDS011;17980;51.744;7.190;2022-12-10T15:01:25;77.57;;;41.57;;
27145;SDS011;17980;51.744;7.190;2022-12-10T15:03:54;77.57;;;39.10;;
27145;SDS011;17980;51.744;7.190;2022-12-10T15:06:25;82.37;;;41.90;;
27145;SDS011;17980;51.744;7.190;2022-12-10T15:11:44;73.47;;;40.37;;
27145;SDS011;17980;51.744;7.190;2022-12-10T15:14:21;73.17;;;38.83;;
27145;SDS011;17980;51.744;7.190;2022-12-10T15:16:50;71.60;;;37.53;;
27145;SDS011;17980;51.744;7.190;2022-12-10T15:19:32;75.37;;;40.17;;
27145;SDS011;17980;51.744;7.190;2022-12-10T15:24:40;78.73;;;40.07;;
27145;SDS011;17980;51.744;7.190;2022-12-10T15:27:17;82.80;;;42.37;;
27145;SDS011;17980;51.744;7.190;2022-12-10T15:29:49;80.07;;;40.93;;
27145;SDS011;17980;51.744;7.190;2022-12-10T15:32:28;69.20;;;37.13;;
27145;SDS011;17980;51.744;7.190;2022-12-10T15:35:03;78.97;;;39.20;;
27145;SDS011;17980;51.744;7.190;2022-12-10T15:37:51;80.00;;;37.73;;
27145;SDS011;17980;51.744;7.190;2022-12-10T15:40:27;73.70;;;37.73;;
27145;SDS011;17980;51.744;7.190;2022-12-10T15:43:16;69.30;;;36.80;;
27145;SDS011;17980;51.744;7.190;2022-12-10T15:45:52;72.10;;;38.33;;
27145;SDS011;17980;51.744;7.190;2022-12-10T15:48:21;76.33;;;37.20;;